Terminal Aerodrome Forecast
Issued by NWS

Home | Current Version | Previous Version | Text Only | Print | Product List | Glossary On
Versions: 1 2 3 4 5 6 7 8 9 10 11 12 13 14 15 16 17 18 19 20 21 22 23 24 25 26
860
FTUS41 KOKX 120902 AAA
TAFTEB
TAF AMD
KTEB 120902Z 1209/1306 28007KT P6SM SKC
     FM121600 24008KT P6SM FEW040 BKN130
     FM122300 24006KT P6SM BKN040
     FM130300 25004KT P6SM FEW035 BKN040=

USA.gov is the U.S. government's official web portal to all federal, state and local government web resources and services.